Time;durP1;ratioP1;P1;durP2;ratioP2;P2;SDS_P1;SDS_P2;PMS_P1;PMS_P2;Temp;Humidity;BMP_temperature;BMP_pressure;BME280_temperature;BME280_humidity;BME280_pressure;Samples;Min_cycle;Max_cycle;Signal;HPM_P1;HPM_P2
2024/03/08 00:00:35;;;;;;;31.85;25.08;;;9.50;58.00;;;;;;4972920;28;20050;-80
2024/03/08 00:03:19;;;;;;;29.88;26.42;;;9.50;58.10;;;;;;4966516;28;20115;-80
2024/03/08 00:06:05;;;;;;;32.55;26.70;;;9.50;58.10;;;;;;4971479;28;20046;-78
2024/03/08 00:08:50;;;;;;;33.65;26.85;;;9.40;58.00;;;;;;4976455;28;20137;-78
2024/03/08 00:11:37;;;;;;;31.10;26.17;;;9.40;58.10;;;;;;4970568;28;20073;-78
2024/03/08 00:14:22;;;;;;;29.58;25.73;;;9.30;57.90;;;;;;4981196;28;20045;-78
2024/03/08 00:17:06;;;;;;;31.92;26.40;;;9.30;58.00;;;;;;4975665;28;20171;-79
2024/03/08 00:19:51;;;;;;;30.70;25.95;;;9.30;58.00;;;;;;4965005;28;20600;-79
2024/03/08 00:22:37;;;;;;;31.10;25.10;;;9.20;57.90;;;;;;4981301;28;20091;-78
2024/03/08 00:25:21;;;;;;;29.58;25.45;;;9.20;58.00;;;;;;4969077;28;20045;-79
2024/03/08 00:28:05;;;;;;;32.35;26.52;;;9.20;58.00;;;;;;4978573;28;20037;-80
2024/03/08 00:30:50;;;;;;;32.22;26.55;;;9.10;57.90;;;;;;4977165;28;20054;-80
2024/03/08 00:33:36;;;;;;;31.15;26.08;;;9.10;57.90;;;;;;4980038;28;20486;-80
2024/03/08 00:36:21;;;;;;;32.95;27.20;;;9.10;58.00;;;;;;4983979;28;20044;-80
2024/03/08 00:39:06;;;;;;;33.53;27.02;;;9.00;57.80;;;;;;4969989;28;20105;-80
2024/03/08 00:41:50;;;;;;;30.15;26.85;;;9.10;58.00;;;;;;4980434;28;20398;-79
2024/03/08 00:44:35;;;;;;;33.10;27.17;;;9.00;57.90;;;;;;4970607;28;20136;-79
2024/03/08 00:47:20;;;;;;;32.33;26.75;;;9.00;57.90;;;;;;4977096;28;20093;-79
2024/03/08 00:50:05;;;;;;;32.17;27.15;;;9.00;57.90;;;;;;4964849;28;20109;-80
2024/03/08 00:52:50;;;;;;;33.10;28.42;;;9.00;57.90;;;;;;4973807;28;20042;-80
2024/03/08 00:55:34;;;;;;;31.88;26.63;;;9.00;58.00;;;;;;4970479;28;20090;-80
2024/03/08 00:58:19;;;;;;;33.25;27.70;;;9.00;57.90;;;;;;4983507;28;20057;-80
2024/03/08 01:01:04;;;;;;;33.78;28.10;;;9.00;57.90;;;;;;4973099;28;20457;-80
2024/03/08 01:03:49;;;;;;;34.75;28.48;;;9.00;58.00;;;;;;4984217;28;20060;-80
2024/03/08 01:06:34;;;;;;;35.38;27.48;;;9.00;58.00;;;;;;4978137;28;20579;-81
2024/03/08 01:09:20;;;;;;;32.40;27.45;;;8.90;57.80;;;;;;4983173;28;20103;-81
2024/03/08 01:12:07;;;;;;;35.15;28.30;;;8.90;57.90;;;;;;4979843;28;20041;-81
2024/03/08 01:14:51;;;;;;;36.30;29.17;;;8.90;57.90;;;;;;4977444;28;20394;-80
2024/03/08 01:17:36;;;;;;;37.08;29.30;;;8.90;57.90;;;;;;4971607;28;20049;-80
2024/03/08 01:20:21;;;;;;;32.75;28.17;;;8.90;58.00;;;;;;4972049;28;20409;-80
2024/03/08 01:23:07;;;;;;;37.10;29.55;;;8.80;57.90;;;;;;4975120;28;20221;-81
2024/03/08 01:25:56;;;;;;;34.08;27.60;;;8.80;57.90;;;;;;4975757;28;20045;-80
2024/03/08 01:28:41;;;;;;;35.15;29.83;;;8.80;57.90;;;;;;4982795;28;20572;-80
2024/03/08 01:31:25;;;;;;;38.33;29.80;;;8.70;57.80;;;;;;4982183;28;20045;-80
2024/03/08 01:34:10;;;;;;;33.47;28.05;;;8.80;58.00;;;;;;4971008;28;20070;-81
2024/03/08 01:36:57;;;;;;;35.22;30.40;;;8.70;57.90;;;;;;4968489;28;20041;-80
2024/03/08 01:39:42;;;;;;;37.13;30.25;;;8.70;58.00;;;;;;4966316;28;20233;-80
2024/03/08 01:42:27;;;;;;;38.50;31.00;;;8.70;58.00;;;;;;4978519;28;20141;-79
2024/03/08 01:45:13;;;;;;;34.35;29.33;;;8.70;58.00;;;;;;4971664;28;20061;-80
2024/03/08 01:47:57;;;;;;;37.75;29.45;;;8.70;58.00;;;;;;4968761;28;20045;-80
2024/03/08 01:50:42;;;;;;;37.33;29.52;;;8.60;57.90;;;;;;4972919;28;20061;-79
2024/03/08 01:53:29;;;;;;;38.10;30.25;;;8.60;57.90;;;;;;4959346;28;20088;-79
2024/03/08 01:56:14;;;;;;;36.85;29.48;;;8.60;58.00;;;;;;4981048;28;20045;-79
2024/03/08 01:58:59;;;;;;;36.42;29.52;;;8.60;58.00;;;;;;4980988;28;20057;-79
2024/03/08 02:01:44;;;;;;;36.85;30.33;;;8.60;58.10;;;;;;4964914;28;20283;-80
2024/03/08 02:04:30;;;;;;;40.53;30.42;;;8.50;57.90;;;;;;4972515;28;20170;-79
2024/03/08 02:07:14;;;;;;;39.08;31.25;;;8.50;58.00;;;;;;4983611;28;20128;-79
2024/03/08 02:10:00;;;;;;;37.40;30.80;;;8.50;58.00;;;;;;4982244;28;20125;-81
2024/03/08 02:12:46;;;;;;;37.83;30.75;;;8.50;58.10;;;;;;4970527;28;20518;-81
2024/03/08 02:15:50;;;;;;;37.30;29.85;;;8.50;58.10;;;;;;4977365;28;20096;-80
2024/03/08 02:18:35;;;;;;;35.58;30.35;;;8.40;58.00;;;;;;4966496;28;20158;-81
2024/03/08 02:21:22;;;;;;;40.10;32.53;;;8.40;58.00;;;;;;4972833;28;20501;-81
2024/03/08 02:24:07;;;;;;;38.70;30.75;;;8.40;58.00;;;;;;4978183;28;20041;-81
2024/03/08 02:26:53;;;;;;;38.63;30.85;;;8.40;58.10;;;;;;4976277;28;20386;-81
2024/03/08 02:29:40;;;;;;;38.65;32.83;;;8.40;58.10;;;;;;4980934;28;20117;-81
2024/03/08 02:32:25;;;;;;;37.10;30.60;;;8.40;58.20;;;;;;4976609;28;20085;-78
2024/03/08 02:35:10;;;;;;;41.22;33.47;;;8.40;58.20;;;;;;4984195;28;20951;-78
2024/03/08 02:37:54;;;;;;;38.45;30.95;;;8.40;58.20;;;;;;4978952;28;20045;-79
2024/03/08 02:40:39;;;;;;;39.85;31.20;;;8.40;58.20;;;;;;4967922;28;20077;-78
2024/03/08 02:43:24;;;;;;;37.33;31.88;;;8.40;58.20;;;;;;4964717;28;20193;-78
2024/03/08 02:46:08;;;;;;;39.28;30.25;;;8.30;58.10;;;;;;4978743;28;20544;-78
2024/03/08 02:48:53;;;;;;;39.72;32.22;;;8.30;58.00;;;;;;4981085;28;20706;-78
2024/03/08 02:51:38;;;;;;;44.40;32.85;;;8.30;58.10;;;;;;4980109;28;20041;-78
2024/03/08 02:54:23;;;;;;;41.83;32.65;;;8.30;58.10;;;;;;4984660;28;20161;-79
2024/03/08 02:57:08;;;;;;;39.00;31.25;;;8.30;58.20;;;;;;4987260;28;20128;-79
2024/03/08 02:59:53;;;;;;;40.08;32.45;;;8.30;58.20;;;;;;4975958;28;20496;-80
2024/03/08 03:02:38;;;;;;;39.38;32.25;;;8.30;58.20;;;;;;4987194;28;20516;-81
2024/03/08 03:05:24;;;;;;;42.72;33.80;;;8.30;58.20;;;;;;4987023;28;20469;-81
2024/03/08 03:08:08;;;;;;;39.85;32.65;;;8.30;58.30;;;;;;4987649;28;20405;-81
2024/03/08 03:10:53;;;;;;;40.38;33.15;;;8.20;58.10;;;;;;4972184;28;20061;-81
2024/03/08 03:13:38;;;;;;;42.15;33.17;;;8.30;58.30;;;;;;4982481;28;20122;-81
2024/03/08 03:16:25;;;;;;;38.88;33.17;;;8.20;58.20;;;;;;4980155;28;20386;-81
2024/03/08 03:19:09;;;;;;;38.05;33.35;;;8.20;58.20;;;;;;4957376;28;20093;-81
2024/03/08 03:21:54;;;;;;;41.35;32.78;;;8.20;58.30;;;;;;4982143;28;20417;-82
2024/03/08 03:24:38;;;;;;;40.45;33.92;;;8.20;58.30;;;;;;4985379;28;20543;-80
2024/03/08 03:27:24;;;;;;;43.75;33.30;;;8.20;58.30;;;;;;4975455;28;20041;-80
2024/03/08 03:30:21;;;;;;;43.03;34.65;;;8.20;58.40;;;;;;4983796;28;20045;-81
2024/03/08 03:33:06;;;;;;;42.33;34.22;;;8.20;58.40;;;;;;4987558;28;20213;-80
2024/03/08 03:35:52;;;;;;;43.90;35.30;;;8.20;58.40;;;;;;4986063;28;20577;-80
2024/03/08 03:38:36;;;;;;;42.65;33.97;;;8.20;58.40;;;;;;4983391;28;20061;-80
2024/03/08 03:41:21;;;;;;;47.35;36.17;;;8.20;58.40;;;;;;4983732;28;20141;-80
2024/03/08 03:44:08;;;;;;;41.20;34.05;;;8.20;58.40;;;;;;4984472;28;20504;-80
2024/03/08 03:46:53;;;;;;;46.50;36.22;;;8.20;58.50;;;;;;4976823;28;20136;-80
2024/03/08 03:49:38;;;;;;;44.42;35.90;;;8.20;58.50;;;;;;4977901;28;20045;-80
2024/03/08 03:52:23;;;;;;;41.67;34.20;;;8.20;58.50;;;;;;4973005;28;20046;-81
2024/03/08 03:55:08;;;;;;;46.58;36.15;;;8.20;58.40;;;;;;4986357;28;20045;-81
2024/03/08 03:57:53;;;;;;;47.00;35.92;;;8.20;58.40;;;;;;4972983;28;20069;-80
2024/03/08 04:00:37;;;;;;;47.60;37.90;;;8.20;58.40;;;;;;4984249;28;20045;-80
2024/03/08 04:03:22;;;;;;;43.42;36.50;;;8.20;58.40;;;;;;4987715;28;20426;-81
2024/03/08 04:06:07;;;;;;;46.30;37.53;;;8.20;59.10;;;;;;4967897;28;20085;-81
2024/03/08 04:08:51;;;;;;;43.22;34.78;;;8.20;58.50;;;;;;4982122;28;20110;-81
2024/03/08 04:11:36;;;;;;;44.75;36.42;;;8.20;58.50;;;;;;4972984;28;20069;-80
2024/03/08 04:14:20;;;;;;;43.67;35.28;;;8.20;58.50;;;;;;4969711;28;20716;-80
2024/03/08 04:17:05;;;;;;;44.10;34.65;;;8.20;58.60;;;;;;4985080;28;20435;-80
2024/03/08 04:19:50;;;;;;;43.08;35.25;;;8.20;58.50;;;;;;4989643;28;20127;-80
2024/03/08 04:22:39;;;;;;;46.20;37.15;;;8.30;59.30;;;;;;4969900;28;20053;-80
2024/03/08 04:25:23;;;;;;;48.78;37.60;;;8.20;58.60;;;;;;4988516;28;20398;-80
2024/03/08 04:28:11;;;;;;;46.88;36.70;;;8.30;58.80;;;;;;4989938;28;20041;-80
2024/03/08 04:30:56;;;;;;;45.90;38.25;;;8.20;58.60;;;;;;4995928;28;20573;-79
2024/03/08 04:33:41;;;;;;;50.22;38.40;;;8.20;58.70;;;;;;4988349;28;20061;-80
2024/03/08 04:36:26;;;;;;;45.42;36.97;;;8.30;58.80;;;;;;4989913;28;20048;-81
2024/03/08 04:39:13;;;;;;;48.72;38.50;;;8.30;58.80;;;;;;4988907;28;20402;-80
2024/03/08 04:42:09;;;;;;;47.45;38.38;;;8.30;58.80;;;;;;4987348;28;20044;-80
2024/03/08 04:44:53;;;;;;;47.20;37.40;;;8.30;58.90;;;;;;4985817;28;20109;-79
2024/03/08 04:47:38;;;;;;;48.35;37.85;;;8.30;58.90;;;;;;4984515;28;20069;-79
2024/03/08 04:50:23;;;;;;;49.92;39.15;;;8.30;58.90;;;;;;4989543;28;20481;-79
2024/03/08 04:53:08;;;;;;;49.08;39.03;;;8.30;58.90;;;;;;4971654;28;20115;-78
2024/03/08 04:55:53;;;;;;;52.60;39.90;;;8.30;58.90;;;;;;4990151;28;20077;-78
2024/03/08 04:58:38;;;;;;;48.85;39.30;;;8.30;58.90;;;;;;4990371;28;20057;-78
2024/03/08 05:01:22;;;;;;;47.90;39.65;;;8.30;58.90;;;;;;4986353;28;20223;-78
2024/03/08 05:04:06;;;;;;;53.65;39.53;;;8.30;58.90;;;;;;5002926;28;20097;-78
2024/03/08 05:06:51;;;;;;;45.90;37.10;;;8.30;58.90;;;;;;4977975;28;20042;-78
2024/03/08 05:09:37;;;;;;;49.50;39.33;;;8.30;58.90;;;;;;4979118;28;20038;-79
2024/03/08 05:12:22;;;;;;;46.15;38.75;;;8.30;58.90;;;;;;4980445;28;20447;-78
2024/03/08 05:15:07;;;;;;;50.28;39.90;;;8.30;58.90;;;;;;4984849;28;20461;-78
2024/03/08 05:17:51;;;;;;;47.42;38.63;;;8.30;58.90;;;;;;4989993;28;20100;-78
2024/03/08 05:20:37;;;;;;;48.17;39.47;;;8.30;58.90;;;;;;4986591;28;20081;-78
2024/03/08 05:23:22;;;;;;;49.38;37.75;;;8.30;58.90;;;;;;4982240;28;20184;-78
2024/03/08 05:26:06;;;;;;;46.75;37.85;;;8.30;59.00;;;;;;4978940;28;20097;-78
2024/03/08 05:28:51;;;;;;;46.70;38.85;;;8.30;59.00;;;;;;4987800;28;20344;-78
2024/03/08 05:31:49;;;;;;;45.95;37.40;;;8.30;59.00;;;;;;4980817;28;20042;-78
2024/03/08 05:34:34;;;;;;;50.03;40.53;;;8.40;59.20;;;;;;4983075;28;20185;-78
2024/03/08 05:37:20;;;;;;;48.97;40.22;;;8.40;59.20;;;;;;4977887;28;20126;-78
2024/03/08 05:40:09;;;;;;;49.70;39.50;;;8.30;59.00;;;;;;5000339;28;20046;-77
2024/03/08 05:42:53;;;;;;;49.90;38.92;;;8.40;59.20;;;;;;4983524;28;20101;-77
2024/03/08 05:45:37;;;;;;;51.25;39.70;;;8.30;59.00;;;;;;4980288;28;20041;-78
2024/03/08 05:48:22;;;;;;;45.58;37.13;;;8.30;59.00;;;;;;4966449;28;20034;-78
2024/03/08 05:51:06;;;;;;;47.20;38.25;;;8.30;59.00;;;;;;4979982;28;20528;-78
2024/03/08 05:53:53;;;;;;;49.22;38.53;;;8.30;59.00;;;;;;4978298;28;20497;-78
2024/03/08 05:56:38;;;;;;;48.63;38.50;;;8.40;59.20;;;;;;4968022;28;20049;-78
2024/03/08 05:59:23;;;;;;;49.42;39.55;;;8.30;59.10;;;;;;4979141;28;20415;-80
2024/03/08 06:02:07;;;;;;;47.83;37.58;;;8.30;59.10;;;;;;4967123;28;20191;-79
2024/03/08 06:04:52;;;;;;;49.33;38.72;;;8.30;59.10;;;;;;4975567;28;20125;-78
2024/03/08 06:07:40;;;;;;;51.53;38.60;;;8.30;59.10;;;;;;4971146;28;20516;-78
2024/03/08 06:10:24;;;;;;;48.85;39.90;;;8.40;59.30;;;;;;4972832;28;20045;-77
2024/03/08 06:13:09;;;;;;;49.83;39.28;;;8.30;59.10;;;;;;4970508;28;20117;-77
2024/03/08 06:15:54;;;;;;;49.53;39.35;;;8.40;59.30;;;;;;4980336;28;20105;-77
2024/03/08 06:18:41;;;;;;;49.03;37.78;;;8.30;59.10;;;;;;4988245;28;20523;-77
2024/03/08 06:21:26;;;;;;;46.40;39.17;;;8.30;59.10;;;;;;4975813;28;20054;-79
2024/03/08 06:24:10;;;;;;;49.45;37.88;;;8.30;59.10;;;;;;4987859;28;20243;-78
2024/03/08 06:26:54;;;;;;;48.90;38.67;;;8.30;59.10;;;;;;4974643;28;20073;-78
2024/03/08 06:29:39;;;;;;;47.35;37.47;;;8.40;59.40;;;;;;4979478;28;20576;-79
2024/03/08 06:32:24;;;;;;;48.60;38.75;;;8.30;59.20;;;;;;4967429;28;20055;-79
2024/03/08 06:35:10;;;;;;;45.47;36.80;;;8.30;59.20;;;;;;4975255;28;20697;-82
2024/03/08 06:37:54;;;;;;;47.47;36.70;;;8.30;59.20;;;;;;4966390;28;20618;-77
2024/03/08 06:40:40;;;;;;;49.58;37.60;;;8.30;59.20;;;;;;4969023;28;20421;-77
2024/03/08 06:43:32;;;;;;;45.58;34.75;;;8.30;59.20;;;;;;4975437;28;20125;-78
2024/03/08 06:46:17;;;;;;;44.42;32.85;;;8.30;59.30;;;;;;4974068;28;20061;-77
2024/03/08 06:49:03;;;;;;;44.15;32.95;;;8.30;59.50;;;;;;4959073;28;20090;-77
2024/03/08 06:51:49;;;;;;;44.30;32.70;;;8.30;59.80;;;;;;4965960;28;20052;-78
2024/03/08 06:54:33;;;;;;;48.58;35.65;;;8.30;60.00;;;;;;4969096;28;20041;-78
2024/03/08 06:57:18;;;;;;;44.65;31.55;;;8.40;60.50;;;;;;4965802;28;20179;-78
2024/03/08 07:00:03;;;;;;;41.20;31.90;;;8.40;60.70;;;;;;4967982;28;20496;-77
2024/03/08 07:02:50;;;;;;;73.25;39.92;;;8.50;61.10;;;;;;4969903;28;20046;-77
2024/03/08 07:05:35;;;;;;;69.03;39.33;;;8.50;61.30;;;;;;4970290;28;20053;-78
2024/03/08 07:08:20;;;;;;;71.00;37.20;;;8.60;61.70;;;;;;4962585;28;20505;-76
2024/03/08 07:11:05;;;;;;;70.18;37.85;;;8.60;61.90;;;;;;4965162;28;20085;-77
2024/03/08 07:13:49;;;;;;;62.72;38.75;;;8.70;62.20;;;;;;4962130;28;20049;-79
2024/03/08 07:16:39;;;;;;;65.22;38.08;;;8.70;62.40;;;;;;4967191;28;20533;-77
2024/03/08 07:19:24;;;;;;;66.22;36.60;;;8.80;62.70;;;;;;4959133;28;20070;-77
2024/03/08 07:22:08;;;;;;;55.88;35.10;;;8.80;62.90;;;;;;4964979;28;20050;-76
2024/03/08 07:25:10;;;;;;;55.15;35.67;;;8.90;63.20;;;;;;4969846;28;20053;-77
2024/03/08 07:27:55;;;;;;;54.50;34.20;;;9.00;63.40;;;;;;4959540;28;20045;-77
2024/03/08 07:33:30;;;;;;;52.17;33.05;;;9.10;63.70;;;;;;4935454;28;1122315;-78
2024/03/08 07:36:15;;;;;;;44.00;31.98;;;9.20;63.90;;;;;;4961888;28;20891;-77
2024/03/08 07:38:59;;;;;;;39.00;29.25;;;9.20;63.90;;;;;;4969804;28;20580;-77
2024/03/08 07:41:43;;;;;;;43.67;31.08;;;9.30;64.10;;;;;;4966389;28;20046;-77
2024/03/08 07:44:29;;;;;;;42.00;29.33;;;9.30;64.10;;;;;;4972369;28;20331;-77
2024/03/08 07:47:14;;;;;;;47.40;30.98;;;9.40;64.30;;;;;;4975487;28;20061;-76
2024/03/08 07:49:59;;;;;;;44.00;31.83;;;9.50;64.50;;;;;;4967332;28;20049;-79
2024/03/08 07:52:44;;;;;;;42.97;30.50;;;9.50;64.50;;;;;;4966445;28;20074;-78
2024/03/08 07:55:30;;;;;;;40.97;29.95;;;9.50;64.50;;;;;;4976314;28;20045;-78
2024/03/08 07:58:15;;;;;;;37.67;28.00;;;9.60;64.60;;;;;;4981534;28;20151;-76
2024/03/08 08:00:59;;;;;;;38.60;28.10;;;9.70;64.80;;;;;;4973864;28;20893;-77
2024/03/08 08:03:45;;;;;;;37.95;29.70;;;9.70;64.80;;;;;;4971689;28;20310;-77
2024/03/08 08:06:33;;;;;;;35.20;28.88;;;9.80;65.00;;;;;;4976223;28;20055;-77
2024/03/08 08:09:28;;;;;;;36.28;27.75;;;9.90;65.10;;;;;;4977445;28;20085;-78
2024/03/08 08:12:12;;;;;;;33.85;27.25;;;9.90;65.00;;;;;;4972913;28;20138;-79
2024/03/08 08:14:56;;;;;;;35.92;27.80;;;10.00;65.10;;;;;;4974260;28;20577;-80
2024/03/08 08:17:45;;;;;;;36.03;28.33;;;10.00;65.00;;;;;;4963906;28;20407;-78
2024/03/08 08:20:29;;;;;;;33.83;27.05;;;10.20;65.30;;;;;;4965243;28;20096;-78
2024/03/08 08:23:13;;;;;;;34.90;27.05;;;10.20;65.20;;;;;;4967740;28;20591;-78
2024/03/08 08:25:59;;;;;;;36.45;28.83;;;10.30;65.30;;;;;;4961564;28;20528;-77
2024/03/08 08:28:45;;;;;;;33.45;26.50;;;10.40;65.40;;;;;;4965523;28;20058;-78
2024/03/08 08:31:32;;;;;;;34.05;27.75;;;10.40;65.20;;;;;;4970789;28;20118;-79
2024/03/08 08:34:19;;;;;;;33.92;27.55;;;10.50;65.30;;;;;;4957994;28;20081;-78
2024/03/08 08:37:03;;;;;;;34.20;27.50;;;10.50;65.20;;;;;;4971047;28;20492;-78
2024/03/08 08:39:51;;;;;;;34.58;28.33;;;10.60;65.30;;;;;;4968574;28;20061;-79
2024/03/08 08:42:39;;;;;;;33.17;26.77;;;10.60;65.10;;;;;;4967414;28;20438;-78
2024/03/08 08:45:23;;;;;;;35.38;28.98;;;10.60;64.90;;;;;;4967820;28;20049;-79
2024/03/08 08:48:07;;;;;;;33.40;27.77;;;10.60;64.90;;;;;;4971909;28;20351;-79
2024/03/08 08:50:52;;;;;;;36.22;28.80;;;10.60;64.80;;;;;;4967396;28;20069;-79
2024/03/08 08:53:37;;;;;;;33.10;29.27;;;10.60;64.60;;;;;;4964166;28;20065;-79
2024/03/08 08:56:22;;;;;;;35.28;29.40;;;10.60;64.50;;;;;;4976683;28;20097;-80
2024/03/08 08:59:07;;;;;;;35.50;29.27;;;10.70;64.60;;;;;;4972357;28;20053;-78
2024/03/08 09:01:53;;;;;;;35.30;28.52;;;10.60;64.20;;;;;;4985369;28;20061;-80
2024/03/08 09:04:38;;;;;;;37.38;31.17;;;10.70;64.30;;;;;;4971660;28;20045;-79
2024/03/08 09:07:22;;;;;;;32.90;29.02;;;10.70;64.20;;;;;;4981164;28;20080;-78
2024/03/08 09:10:09;;;;;;;37.22;30.10;;;10.70;64.00;;;;;;4973014;28;20556;-81
2024/03/08 09:12:54;;;;;;;34.55;29.58;;;10.70;63.90;;;;;;4974025;28;20044;-79
2024/03/08 09:15:40;;;;;;;38.75;31.63;;;10.80;64.40;;;;;;4973015;28;20088;-78
2024/03/08 09:18:25;;;;;;;37.45;30.67;;;10.80;63.70;;;;;;4967610;28;20142;-78
2024/03/08 09:21:09;;;;;;;35.13;29.75;;;10.90;63.70;;;;;;4967569;28;20037;-79
2024/03/08 09:23:54;;;;;;;35.05;30.00;;;10.90;63.50;;;;;;4978527;28;20405;-80
2024/03/08 09:26:40;;;;;;;37.00;29.63;;;11.00;63.60;;;;;;4965207;28;20041;-79
2024/03/08 09:29:25;;;;;;;36.78;30.80;;;11.00;63.40;;;;;;4979259;28;20572;-80
2024/03/08 09:32:11;;;;;;;36.42;30.92;;;11.10;63.30;;;;;;4966539;28;20041;-81
2024/03/08 09:34:56;;;;;;;37.63;30.77;;;11.10;63.20;;;;;;4975220;28;20185;-81
2024/03/08 09:37:40;;;;;;;39.08;30.20;;;11.20;63.30;;;;;;4984022;28;20344;-80
2024/03/08 09:40:25;;;;;;;41.03;31.67;;;11.20;63.00;;;;;;4981170;28;20069;-81
2024/03/08 09:43:13;;;;;;;33.35;28.85;;;11.20;62.80;;;;;;4970110;28;20089;-81
2024/03/08 09:45:58;;;;;;;39.40;29.88;;;11.20;62.70;;;;;;4962095;28;20110;-80
2024/03/08 09:48:43;;;;;;;39.15;29.50;;;11.20;62.50;;;;;;4952997;28;20676;-80
2024/03/08 09:51:29;;;;;;;35.63;30.38;;;11.30;62.60;;;;;;4965481;28;20053;-79
2024/03/08 09:54:13;;;;;;;38.35;30.27;;;11.30;62.90;;;;;;4988170;28;20393;-80
2024/03/08 09:56:57;;;;;;;35.80;29.27;;;11.40;62.40;;;;;;4966939;28;20041;-79
2024/03/08 09:59:46;;;;;;;36.63;30.00;;;11.40;62.30;;;;;;4961392;28;20110;-80
2024/03/08 10:02:31;;;;;;;34.35;30.40;;;11.40;62.10;;;;;;4971438;28;20098;-79
2024/03/08 10:05:16;;;;;;;36.22;29.77;;;11.50;62.20;;;;;;4970577;28;20402;-78
2024/03/08 10:08:01;;;;;;;36.13;29.67;;;11.50;62.10;;;;;;4971815;28;20069;-78
2024/03/08 10:10:46;;;;;;;36.42;30.50;;;11.60;62.10;;;;;;4971945;28;20109;-77
2024/03/08 10:13:32;;;;;;;33.78;29.55;;;11.70;62.00;;;;;;4971032;28;20058;-79
2024/03/08 10:16:19;;;;;;;35.50;29.90;;;11.70;61.80;;;;;;4975599;28;20049;-78
2024/03/08 10:19:05;;;;;;;38.63;29.23;;;11.80;61.80;;;;;;4975941;28;20116;-79
2024/03/08 10:21:53;;;;;;;33.92;28.50;;;11.80;61.70;;;;;;4971455;28;20552;-79
2024/03/08 10:24:38;;;;;;;32.67;28.58;;;11.90;61.60;;;;;;4974475;28;20049;-78
2024/03/08 10:27:22;;;;;;;36.20;29.23;;;12.00;61.70;;;;;;4974259;28;20089;-78
2024/03/08 10:30:13;;;;;;;37.35;29.52;;;12.00;62.00;;;;;;4969815;28;20071;-78
2024/03/08 10:32:58;;;;;;;36.58;30.45;;;12.00;61.20;;;;;;4971632;28;20297;-78
2024/03/08 10:35:43;;;;;;;35.72;28.70;;;12.10;61.20;;;;;;4985161;28;20101;-78
2024/03/08 10:38:32;;;;;;;33.60;28.58;;;12.10;61.10;;;;;;4972795;28;20181;-78
2024/03/08 10:41:18;;;;;;;34.83;26.15;;;12.20;61.10;;;;;;4974638;28;20077;-78
2024/03/08 10:44:09;;;;;;;35.28;29.35;;;12.30;61.10;;;;;;4973977;28;20037;-78
2024/03/08 10:47:05;;;;;;;34.50;28.65;;;12.30;60.80;;;;;;4971710;28;20134;-78
2024/03/08 10:50:20;;;;;;;37.40;28.95;;;12.40;60.80;;;;;;4967291;28;20045;-78
2024/03/08 10:53:06;;;;;;;32.25;28.00;;;12.50;60.70;;;;;;4966514;28;20105;-80
2024/03/08 10:55:53;;;;;;;32.47;27.10;;;12.60;60.80;;;;;;4967840;28;20053;-78
2024/03/08 10:58:39;;;;;;;34.95;27.25;;;12.70;60.80;;;;;;4965677;28;20124;-78
2024/03/08 11:01:26;;;;;;;33.45;27.17;;;12.80;60.70;;;;;;4972457;28;20123;-78
2024/03/08 11:04:10;;;;;;;31.70;26.75;;;12.90;60.70;;;;;;4967391;28;20081;-78
2024/03/08 11:07:09;;;;;;;34.00;27.45;;;12.90;60.50;;;;;;4972728;28;20121;-80
2024/03/08 11:09:56;;;;;;;29.38;25.05;;;13.00;60.50;;;;;;4963129;28;20483;-78
2024/03/08 11:12:40;;;;;;;32.08;25.90;;;13.10;60.50;;;;;;4966113;28;20276;-79
2024/03/08 11:15:25;;;;;;;29.58;24.83;;;13.10;60.30;;;;;;4973975;28;20057;-78
2024/03/08 11:18:10;;;;;;;29.08;24.90;;;13.20;60.30;;;;;;4962287;28;20105;-77
2024/03/08 11:20:55;;;;;;;29.70;24.95;;;13.30;60.30;;;;;;4965374;28;20588;-78
2024/03/08 11:23:40;;;;;;;31.02;25.02;;;13.40;60.20;;;;;;4965963;28;20053;-78
2024/03/08 11:26:24;;;;;;;32.35;25.48;;;13.50;60.10;;;;;;4958229;28;20092;-78
2024/03/08 11:29:27;;;;;;;30.45;25.35;;;13.60;60.00;;;;;;4977278;28;20049;-78
2024/03/08 11:32:15;;;;;;;29.27;25.00;;;13.80;60.00;;;;;;4963215;28;20897;-78
2024/03/08 11:34:59;;;;;;;28.73;24.10;;;13.80;59.80;;;;;;4989852;28;20204;-78
2024/03/08 11:37:44;;;;;;;29.55;24.23;;;13.90;59.80;;;;;;4975676;28;20104;-79
2024/03/08 11:40:29;;;;;;;28.88;24.13;;;13.90;59.60;;;;;;4970045;28;20131;-78
2024/03/08 11:43:14;;;;;;;29.40;22.35;;;13.90;59.40;;;;;;4972569;28;20053;-79
2024/03/08 11:46:14;;;;;;;26.42;23.13;;;13.90;59.30;;;;;;4967794;28;20398;-79
2024/03/08 11:49:00;;;;;;;26.83;23.92;;;14.00;59.30;;;;;;4975071;28;20049;-78
2024/03/08 11:51:44;;;;;;;28.73;23.63;;;13.90;59.10;;;;;;4977549;28;20049;-78
2024/03/08 11:54:29;;;;;;;27.98;23.15;;;14.00;59.20;;;;;;4970212;28;20045;-79
2024/03/08 11:57:14;;;;;;;25.77;22.70;;;14.00;59.10;;;;;;4965382;28;20080;-78
2024/03/08 12:00:08;;;;;;;26.85;23.08;;;14.00;58.90;;;;;;4963431;28;20049;-78
2024/03/08 12:03:03;;;;;;;29.67;23.00;;;14.00;58.70;;;;;;4971769;28;20448;-77
2024/03/08 12:05:57;;;;;;;28.27;23.08;;;14.10;58.60;;;;;;4970989;28;20042;-78
2024/03/08 12:08:41;;;;;;;27.13;22.70;;;14.10;58.40;;;;;;4976156;28;20563;-78
2024/03/08 12:11:26;;;;;;;27.38;22.83;;;14.20;58.50;;;;;;4973647;28;20449;-78
2024/03/08 12:14:11;;;;;;;28.65;22.58;;;14.20;58.40;;;;;;4964884;28;20554;-77
2024/03/08 12:16:55;;;;;;;28.60;23.48;;;14.20;58.20;;;;;;4972345;28;20506;-78
2024/03/08 12:19:45;;;;;;;28.60;22.33;;;14.30;58.30;;;;;;4971692;28;20076;-78
2024/03/08 12:22:30;;;;;;;25.00;21.05;;;14.30;58.10;;;;;;4964323;28;20089;-78
2024/03/08 12:25:16;;;;;;;25.40;21.67;;;14.40;58.00;;;;;;4972549;28;20077;-78
2024/03/08 12:28:12;;;;;;;26.45;21.80;;;14.50;58.00;;;;;;4964316;28;20570;-78
2024/03/08 12:30:59;;;;;;;28.67;22.10;;;14.60;57.90;;;;;;4974099;28;20572;-78
2024/03/08 12:33:51;;;;;;;26.77;21.80;;;14.70;58.00;;;;;;4967082;28;20070;-78
2024/03/08 12:36:36;;;;;;;27.63;22.30;;;14.80;57.80;;;;;;4978079;28;20096;-79
2024/03/08 12:39:28;;;;;;;25.05;21.65;;;14.80;57.70;;;;;;4975574;28;20053;-79
2024/03/08 12:42:12;;;;;;;23.77;20.50;;;14.90;57.60;;;;;;4972848;28;20117;-78
2024/03/08 12:44:57;;;;;;;25.70;21.13;;;15.00;57.60;;;;;;4966923;28;20517;-78
2024/03/08 12:47:41;;;;;;;24.92;20.70;;;15.00;57.30;;;;;;4966114;28;20334;-78
2024/03/08 12:50:26;;;;;;;24.65;21.30;;;15.10;57.30;;;;;;4973607;28;20053;-78
2024/03/08 12:53:11;;;;;;;26.20;20.95;;;15.20;57.20;;;;;;4974858;28;20214;-79
2024/03/08 12:55:56;;;;;;;25.80;21.02;;;15.30;57.20;;;;;;4976428;28;20052;-79
2024/03/08 12:58:41;;;;;;;27.33;22.13;;;15.30;57.00;;;;;;4988067;28;20182;-79
2024/03/08 13:01:28;;;;;;;24.63;21.33;;;15.30;56.90;;;;;;4975669;28;20089;-80
2024/03/08 13:04:13;;;;;;;25.83;21.55;;;15.40;56.80;;;;;;4981761;28;20156;-80
2024/03/08 13:06:57;;;;;;;23.98;21.13;;;15.40;56.80;;;;;;4977399;28;20049;-79
2024/03/08 13:09:42;;;;;;;25.95;21.27;;;15.30;56.50;;;;;;4975857;28;20387;-80
2024/03/08 13:12:27;;;;;;;24.00;20.67;;;15.40;56.60;;;;;;4979481;28;20092;-79
2024/03/08 13:15:19;;;;;;;25.55;21.45;;;15.40;56.50;;;;;;4976755;28;20625;-78
2024/03/08 13:18:05;;;;;;;24.23;21.17;;;15.40;56.50;;;;;;4972451;28;20621;-80
2024/03/08 13:20:51;;;;;;;22.92;20.40;;;15.40;56.40;;;;;;4979325;28;20439;-79
2024/03/08 13:23:40;;;;;;;24.33;20.00;;;15.40;56.30;;;;;;4969518;28;20033;-79
2024/03/08 13:26:25;;;;;;;22.67;19.33;;;15.40;56.20;;;;;;4978782;28;20080;-79
2024/03/08 13:29:10;;;;;;;23.08;20.17;;;15.40;56.10;;;;;;4968854;28;20362;-79
2024/03/08 13:31:56;;;;;;;25.55;20.55;;;15.40;56.00;;;;;;4976941;28;20049;-79
2024/03/08 13:34:47;;;;;;;26.92;20.98;;;15.50;56.00;;;;;;4978185;28;20049;-78
2024/03/08 13:37:33;;;;;;;22.42;19.58;;;15.50;55.90;;;;;;4961066;28;20057;-80
2024/03/08 13:40:20;;;;;;;24.23;20.40;;;15.50;55.80;;;;;;4968869;28;20054;-79
2024/03/08 13:43:05;;;;;;;25.42;21.15;;;15.50;55.70;;;;;;4976328;28;20065;-79
2024/03/08 13:45:50;;;;;;;25.55;20.13;;;15.50;55.60;;;;;;4976061;28;20041;-79
2024/03/08 13:48:34;;;;;;;22.30;19.02;;;15.50;55.50;;;;;;4975767;28;20101;-79
2024/03/08 13:51:22;;;;;;;21.45;18.88;;;15.50;55.40;;;;;;4971815;28;20194;-78
2024/03/08 13:54:06;;;;;;;22.42;17.80;;;15.50;55.30;;;;;;4970542;28;20070;-79
2024/03/08 13:56:54;;;;;;;20.95;18.60;;;15.50;55.10;;;;;;4979414;28;20529;-79
2024/03/08 13:59:38;;;;;;;22.50;19.35;;;15.60;55.20;;;;;;4968574;28;20090;-79
2024/03/08 14:02:27;;;;;;;22.80;18.58;;;15.60;55.00;;;;;;4979155;28;20057;-81
2024/03/08 14:05:14;;;;;;;20.38;18.17;;;15.60;54.90;;;;;;4975135;28;20040;-79
2024/03/08 14:08:00;;;;;;;21.13;17.67;;;15.70;54.90;;;;;;4976737;28;20064;-79
2024/03/08 14:10:46;;;;;;;20.90;18.65;;;15.70;54.70;;;;;;4970337;28;20136;-79